Time;durP1;ratioP1;P1;durP2;ratioP2;P2;SDS_P1;SDS_P2;PMS_P1;PMS_P2;Temp;Humidity;BMP_temperature;BMP_pressure;BME280_temperature;BME280_humidity;BME280_pressure;Samples;Min_cycle;Max_cycle;Signal;HPM_P1;HPM_P2
2022/01/15 00:00:52;;;;;;;0.30;0.30;;;1.80;99.90;;;;;;5023481;28;20065;-91
2022/01/15 00:03:23;;;;;;;0.50;0.50;;;1.80;99.90;;;;;;5013607;28;20113;-91
2022/01/15 00:05:51;;;;;;;;;;;1.70;99.90;;;;;;5024271;28;20018;-91
2022/01/15 00:08:17;;;;;;;0.40;0.40;;;1.70;99.90;;;;;;5023361;28;19920;-91
2022/01/15 00:10:43;;;;;;;0.40;0.40;;;1.60;99.90;;;;;;5023325;28;20087;-90
2022/01/15 00:13:14;;;;;;;13.68;12.32;;;1.30;99.90;;;;;;5023223;28;20025;-90
2022/01/15 00:15:47;;;;;;;0.30;0.30;;;1.30;99.90;;;;;;5022822;28;20439;-91
2022/01/15 00:18:15;;;;;;;0.35;0.35;;;1.30;99.90;;;;;;5023007;28;20025;-90
2022/01/15 00:21:04;;;;;;;0.40;0.40;;;1.40;99.90;;;;;;5022915;28;20009;-91
2022/01/15 00:23:40;;;;;;;0.40;0.40;;;1.30;99.90;;;;;;5022417;28;20044;-91
2022/01/15 00:26:22;;;;;;;0.40;0.40;;;1.30;99.90;;;;;;5040545;28;20021;-90
2022/01/15 00:29:07;;;;;;;;;;;;;;;;;;;;;
2022/01/15 00:31:50;;;;;;;1.05;1.05;;;1.00;99.90;;;;;;5040812;28;19981;-91
2022/01/15 00:34:18;;;;;;;0.40;0.40;;;0.70;99.90;;;;;;5019193;28;20029;-91
2022/01/15 00:36:56;;;;;;;0.40;0.40;;;0.70;99.90;;;;;;5022705;28;20100;-89
2022/01/15 00:39:37;;;;;;;0.40;0.40;;;0.70;99.90;;;;;;5021319;28;20033;-91
2022/01/15 00:42:13;;;;;;;1.58;1.58;;;0.90;99.90;;;;;;5022106;28;20017;-92
2022/01/15 00:44:42;;;;;;;;;;;1.10;99.90;;;;;;5021837;28;20045;-92
2022/01/15 00:47:11;;;;;;;0.40;0.40;;;1.20;99.90;;;;;;5022415;28;20244;-91
2022/01/15 00:49:37;;;;;;;0.32;0.32;;;1.10;99.90;;;;;;5021947;28;20017;-91
2022/01/15 00:52:03;;;;;;;0.40;0.40;;;1.20;99.90;;;;;;5021123;28;20045;-92
2022/01/15 00:54:28;;;;;;;0.40;0.40;;;1.30;99.90;;;;;;5020938;28;20081;-91
2022/01/15 00:56:54;;;;;;;0.40;0.40;;;1.40;99.90;;;;;;5021197;28;20044;-91
2022/01/15 01:00:05;;;;;;;0.63;0.63;;;1.60;99.90;;;;;;5021449;28;20024;-91
2022/01/15 01:02:31;;;;;;;0.40;0.40;;;1.70;99.90;;;;;;4994785;28;20029;-91
2022/01/15 01:04:57;;;;;;;0.30;0.30;;;1.80;99.90;;;;;;5022477;28;20047;-91
2022/01/15 01:07:27;;;;;;;0.40;0.40;;;1.70;99.90;;;;;;5021839;28;20040;-90
2022/01/15 01:10:19;;;;;;;0.30;0.30;;;1.70;99.90;;;;;;5022827;28;20025;-91
2022/01/15 01:23:52;;;;;;;0.50;0.50;;;1.50;99.90;;;;;;5036261;28;20036;-89
2022/01/15 01:29:31;;;;;;;7.97;5.78;;;1.60;99.90;;;;;;5008082;28;20040;-91
2022/01/15 01:34:40;;;;;;;2.30;1.02;;;1.60;99.90;;;;;;5035001;28;20018;-92
2022/01/15 01:39:46;;;;;;;4.13;2.80;;;1.50;99.90;;;;;;5032909;28;20017;-92
2022/01/15 01:45:08;;;;;;;1.42;1.33;;;1.20;99.90;;;;;;5033812;28;20033;-91
2022/01/15 01:47:41;;;;;;;0.40;0.40;;;1.20;99.90;;;;;;5021484;28;20092;-90
2022/01/15 01:50:09;;;;;;;3.33;3.05;;;0.90;99.90;;;;;;5020869;28;20037;-90
2022/01/15 01:52:36;;;;;;;0.40;0.40;;;0.60;99.90;;;;;;5023519;28;20045;-91
2022/01/15 01:55:02;;;;;;;0.85;0.85;;;0.60;99.90;;;;;;5020885;28;20032;-92
2022/01/15 01:57:28;;;;;;;0.50;0.50;;;0.60;99.90;;;;;;5021013;28;20057;-91
2022/01/15 01:59:54;;;;;;;0.40;0.40;;;0.60;99.90;;;;;;5020404;28;20021;-91
2022/01/15 02:02:19;;;;;;;0.35;0.35;;;0.40;99.90;;;;;;5019373;28;20033;-90
2022/01/15 02:04:45;;;;;;;0.47;0.47;;;0.20;99.90;;;;;;5021527;28;20021;-91
2022/01/15 02:07:20;;;;;;;0.45;0.45;;;0.20;99.90;;;;;;5024362;28;20049;-91
2022/01/15 02:09:56;;;;;;;0.40;0.40;;;0.20;99.90;;;;;;5024005;28;20036;-90
2022/01/15 02:12:36;;;;;;;0.40;0.40;;;0.40;99.90;;;;;;5027799;28;20018;-91
2022/01/15 02:15:24;;;;;;;0.40;0.40;;;0.50;99.90;;;;;;5026167;28;20017;-91
2022/01/15 02:17:59;;;;;;;2.65;2.47;;;0.60;99.90;;;;;;5025004;28;20102;-90
2022/01/15 02:20:35;;;;;;;0.40;0.40;;;0.50;99.90;;;;;;5040195;28;20427;-90
2022/01/15 02:26:05;;;;;;;0.40;0.40;;;0.30;99.90;;;;;;5041373;28;20010;-90
2022/01/15 02:28:52;;;;;;;5.70;3.30;;;-0.20;99.90;;;;;;5025405;28;20056;-91
2022/01/15 02:31:25;;;;;;;1.23;1.23;;;-0.40;99.90;;;;;;5023497;28;20088;-91
2022/01/15 02:34:03;;;;;;;0.40;0.40;;;-0.40;99.90;;;;;;5020758;28;20029;-91
2022/01/15 02:36:34;;;;;;;0.73;0.73;;;-0.30;99.90;;;;;;5020135;28;20552;-91
2022/01/15 02:39:00;;;;;;;4.18;3.92;;;-0.10;99.90;;;;;;5017770;28;20026;-91
2022/01/15 02:41:37;;;;;;;0.30;0.30;;;0.00;99.90;;;;;;5018035;28;20026;-91
2022/01/15 02:44:06;;;;;;;36.13;24.52;;;-0.10;99.90;;;;;;5019344;28;20033;-91
2022/01/15 02:49:00;;;;;;;0.32;0.32;;;0.00;99.90;;;;;;5034675;28;20097;-90
2022/01/15 02:51:31;;;;;;;0.40;0.40;;;0.00;99.90;;;;;;5018406;28;20063;-91
2022/01/15 02:53:57;;;;;;;0.52;0.52;;;0.10;99.90;;;;;;5017664;28;20029;-90
2022/01/15 02:56:36;;;;;;;0.40;0.40;;;0.20;99.90;;;;;;5017511;28;20025;-90
2022/01/15 02:59:04;;;;;;;0.50;0.50;;;0.20;99.90;;;;;;5017918;28;20026;-91
2022/01/15 03:01:31;;;;;;;0.50;0.50;;;0.30;99.90;;;;;;5016822;28;20041;-91
2022/01/15 03:03:56;;;;;;;0.60;0.60;;;0.30;99.90;;;;;;5018224;28;20210;-91
2022/01/15 03:06:34;;;;;;;0.30;0.30;;;0.40;99.90;;;;;;5017900;28;20029;-92
2022/01/15 03:09:09;;;;;;;0.50;0.50;;;0.60;99.90;;;;;;5018768;28;20025;-91
2022/01/15 03:11:38;;;;;;;78.03;51.72;;;0.40;99.90;;;;;;5020548;28;20022;-91
2022/01/15 03:14:04;;;;;;;0.50;0.50;;;0.40;99.90;;;;;;5017778;28;20040;-90
2022/01/15 03:16:51;;;;;;;2.30;2.20;;;0.20;99.90;;;;;;5019990;28;20052;-91
2022/01/15 03:19:29;;;;;;;0.85;0.85;;;-0.20;99.90;;;;;;5022851;28;20006;-91
2022/01/15 03:21:57;;;;;;;2.08;1.98;;;-0.20;99.90;;;;;;5025059;28;20036;-90
2022/01/15 03:24:23;;;;;;;0.50;0.50;;;-0.30;99.90;;;;;;5020772;28;20057;-90
2022/01/15 03:26:49;;;;;;;0.50;0.50;;;-0.50;99.90;;;;;;5016911;28;20037;-92
2022/01/15 03:29:14;;;;;;;0.50;0.50;;;-0.70;99.90;;;;;;5016730;28;20495;-91
2022/01/15 03:31:40;;;;;;;0.40;0.40;;;-0.80;99.90;;;;;;5016203;28;20013;-91
2022/01/15 03:34:06;;;;;;;0.40;0.40;;;-0.90;99.90;;;;;;5016935;28;20040;-90
2022/01/15 03:36:32;;;;;;;0.40;0.40;;;-0.90;99.90;;;;;;5015142;28;20033;-91
2022/01/15 03:38:57;;;;;;;0.40;0.40;;;-0.70;99.90;;;;;;5014937;28;20036;-91
2022/01/15 03:41:23;;;;;;;0.52;0.52;;;-0.40;99.90;;;;;;5016729;28;20086;-91
2022/01/15 03:43:49;;;;;;;0.45;0.45;;;-0.40;99.90;;;;;;5015827;28;20099;-91
2022/01/15 03:46:15;;;;;;;0.40;0.40;;;-0.20;99.90;;;;;;5016190;28;20067;-91
2022/01/15 03:48:40;;;;;;;0.40;0.40;;;-0.10;99.90;;;;;;5016225;28;20041;-91
2022/01/15 03:51:06;;;;;;;0.40;0.40;;;-0.10;99.90;;;;;;5017137;28;20052;-91
2022/01/15 03:53:32;;;;;;;0.40;0.40;;;0.00;99.90;;;;;;5016510;28;20029;-91
2022/01/15 03:55:58;;;;;;;0.40;0.40;;;0.10;99.90;;;;;;5014422;28;20048;-91
2022/01/15 03:58:23;;;;;;;0.35;0.35;;;0.20;99.90;;;;;;5014208;28;20447;-91
2022/01/15 04:00:49;;;;;;;0.60;0.60;;;0.00;99.90;;;;;;5012974;28;20022;-91
2022/01/15 04:03:15;;;;;;;0.40;0.40;;;-0.20;99.90;;;;;;5014259;28;20017;-91
2022/01/15 04:05:41;;;;;;;0.40;0.40;;;-0.30;99.90;;;;;;5013838;28;20025;-91
2022/01/15 04:08:10;;;;;;;0.40;0.40;;;-0.50;99.90;;;;;;5013585;28;20025;-90
2022/01/15 04:10:44;;;;;;;2.80;2.50;;;-0.40;99.90;;;;;;5014420;28;20022;-91
2022/01/15 04:13:11;;;;;;;0.40;0.40;;;-0.30;99.90;;;;;;5013350;28;20108;-91
2022/01/15 04:15:43;;;;;;;0.55;0.55;;;-0.20;99.90;;;;;;5014546;28;20021;-91
2022/01/15 04:18:14;;;;;;;0.40;0.40;;;-0.20;99.90;;;;;;5013796;28;20026;-90
2022/01/15 04:20:43;;;;;;;0.68;0.68;;;-0.20;99.90;;;;;;5016504;28;20406;-91
2022/01/15 04:23:17;;;;;;;0.73;0.73;;;-0.20;99.90;;;;;;5014350;28;20025;-91
2022/01/15 04:25:48;;;;;;;0.30;0.30;;;-0.30;99.90;;;;;;5013902;28;20029;-91
2022/01/15 04:28:38;;;;;;;1.15;1.13;;;-0.30;99.90;;;;;;5013282;28;20036;-91
2022/01/15 04:31:22;;;;;;;0.40;0.40;;;-0.10;99.90;;;;;;5013277;28;20021;-91
2022/01/15 04:33:53;;;;;;;0.50;0.50;;;-0.20;99.90;;;;;;5013373;28;20049;-91
2022/01/15 04:36:19;;;;;;;0.90;0.90;;;-0.20;99.90;;;;;;5012843;28;20183;-91
2022/01/15 04:38:45;;;;;;;1.00;1.00;;;-0.40;99.90;;;;;;5011323;28;20029;-91
2022/01/15 04:41:11;;;;;;;0.98;0.98;;;-0.50;99.90;;;;;;5018625;28;20048;-89
2022/01/15 04:43:37;;;;;;;0.60;0.60;;;-0.80;99.90;;;;;;5017186;28;20129;-91
2022/01/15 04:46:02;;;;;;;0.50;0.50;;;-1.00;99.90;;;;;;5012224;28;20029;-91
2022/01/15 04:48:28;;;;;;;0.50;0.50;;;-1.00;99.90;;;;;;5012259;28;20030;-91
2022/01/15 04:50:54;;;;;;;3.05;2.92;;;-0.90;99.90;;;;;;5011878;28;20022;-91
2022/01/15 04:53:20;;;;;;;0.40;0.40;;;-0.60;99.90;;;;;;5011099;28;20029;-91
2022/01/15 04:55:46;;;;;;;0.40;0.40;;;-0.70;99.90;;;;;;5010852;28;20029;-91
2022/01/15 04:58:12;;;;;;;0.40;0.40;;;-0.70;99.90;;;;;;5010009;28;20422;-91
2022/01/15 05:00:38;;;;;;;0.40;0.40;;;-0.70;99.90;;;;;;5010239;28;20033;-92
2022/01/15 05:03:04;;;;;;;1.95;0.77;;;-0.70;99.90;;;;;;5010003;28;20021;-91
2022/01/15 05:05:30;;;;;;;0.40;0.40;;;-0.50;99.90;;;;;;5010860;28;20032;-89
2022/01/15 05:07:56;;;;;;;0.50;0.50;;;-0.60;99.90;;;;;;5010614;28;20034;-90
2022/01/15 05:10:27;;;;;;;1.15;1.15;;;-0.50;99.90;;;;;;5009931;28;20518;-90
2022/01/15 05:12:58;;;;;;;0.68;0.68;;;-0.60;99.90;;;;;;5008668;28;20097;-91
2022/01/15 05:15:23;;;;;;;0.70;0.70;;;-0.70;99.90;;;;;;5010382;28;20029;-91
2022/01/15 05:17:51;;;;;;;0.40;0.40;;;-0.80;99.90;;;;;;5010982;28;20032;-91
2022/01/15 05:20:17;;;;;;;0.40;0.40;;;-1.20;99.90;;;;;;5010529;28;20025;-91
2022/01/15 05:22:44;;;;;;;0.85;0.85;;;-1.40;99.90;;;;;;5010419;28;20033;-91
2022/01/15 05:25:23;;;;;;;0.60;0.60;;;-1.60;99.90;;;;;;5028254;28;20388;-91
2022/01/15 05:28:01;;;;;;;1.13;1.02;;;-1.50;99.90;;;;;;5011970;28;20033;-91
2022/01/15 05:30:30;;;;;;;0.70;0.70;;;-1.50;99.90;;;;;;5010931;28;20023;-90
2022/01/15 05:32:59;;;;;;;0.50;0.50;;;-1.50;99.90;;;;;;5017068;28;20426;-91
2022/01/15 05:35:28;;;;;;;0.40;0.40;;;-1.30;99.90;;;;;;5034491;23;20113;-92
2022/01/15 05:37:59;;;;;;;1.05;1.05;;;-1.00;99.90;;;;;;5023658;28;20041;-92
2022/01/15 05:40:26;;;;;;;0.43;0.43;;;-0.90;99.90;;;;;;5023812;28;20025;-92
2022/01/15 05:43:03;;;;;;;0.43;0.43;;;-0.70;99.90;;;;;;5020363;28;20100;-92
2022/01/15 05:45:35;;;;;;;0.40;0.40;;;-0.60;99.90;;;;;;5037077;28;20142;-92
2022/01/15 05:48:07;;;;;;;0.55;0.55;;;-0.60;99.90;;;;;;5024350;28;20028;-91
2022/01/15 05:51:04;;;;;;;0.40;0.40;;;-0.50;99.90;;;;;;5023057;28;20356;-93
2022/01/15 05:53:44;;;;;;;0.45;0.45;;;-0.90;99.90;;;;;;5041463;28;20021;-92
2022/01/15 05:56:23;;;;;;;0.40;0.40;;;-0.70;99.90;;;;;;5022900;28;20040;-91
2022/01/15 05:58:49;;;;;;;0.52;0.52;;;-0.50;99.90;;;;;;5022583;28;20036;-92
2022/01/15 06:01:24;;;;;;;0.40;0.40;;;-0.60;99.90;;;;;;5023912;28;20021;-92
2022/01/15 06:03:53;;;;;;;0.45;0.45;;;-0.70;99.90;;;;;;5023161;28;20316;-92
2022/01/15 06:06:19;;;;;;;0.60;0.60;;;-0.70;99.90;;;;;;5022668;28;20112;-92
2022/01/15 06:11:34;;;;;;;1.33;1.23;;;-0.70;99.90;;;;;;5025811;28;20025;-92
2022/01/15 06:14:04;;;;;;;0.68;0.68;;;-0.70;99.90;;;;;;5024119;28;20570;-92
2022/01/15 06:16:30;;;;;;;0.55;0.55;;;-0.60;99.90;;;;;;5024643;28;20044;-92
2022/01/15 06:18:57;;;;;;;41.47;4.22;;;-0.80;99.90;;;;;;5029867;28;20029;-92
2022/01/15 06:21:23;;;;;;;0.50;0.50;;;-0.90;99.90;;;;;;5023186;28;20104;-92
2022/01/15 06:23:49;;;;;;;0.57;0.57;;;-0.70;99.90;;;;;;5021695;28;20025;-92
2022/01/15 06:26:24;;;;;;;0.70;0.70;;;-0.60;99.90;;;;;;5024030;28;20029;-92
2022/01/15 06:28:50;;;;;;;0.40;0.40;;;-0.60;99.90;;;;;;5028534;28;20041;-93
2022/01/15 06:31:16;;;;;;;0.82;0.82;;;-0.60;99.90;;;;;;5024747;28;20032;-93
2022/01/15 06:33:45;;;;;;;0.93;0.93;;;-0.60;99.90;;;;;;5026899;28;20075;-93
2022/01/15 06:36:11;;;;;;;3.10;2.90;;;-0.70;99.90;;;;;;5026208;28;20068;-93
2022/01/15 06:38:42;;;;;;;0.50;0.50;;;-0.90;99.90;;;;;;5026622;28;20036;-92
2022/01/15 06:41:08;;;;;;;0.60;0.60;;;-0.90;99.90;;;;;;5025433;28;20120;-94
2022/01/15 06:43:34;;;;;;;4.57;1.85;;;-0.70;99.90;;;;;;5032841;28;20052;-91
2022/01/15 06:46:00;;;;;;;0.70;0.70;;;-0.60;99.90;;;;;;5045167;28;20013;-93
2022/01/15 06:48:28;;;;;;;0.50;0.50;;;-0.40;99.90;;;;;;5030900;28;20005;-92
2022/01/15 06:50:55;;;;;;;1.75;1.65;;;-0.20;99.90;;;;;;5029784;28;20082;-93
2022/01/15 06:53:21;;;;;;;0.50;0.50;;;-0.40;99.90;;;;;;5028809;28;20111;-92
2022/01/15 06:55:49;;;;;;;0.50;0.50;;;-0.50;99.90;;;;;;5027099;28;20041;-93
2022/01/15 06:58:16;;;;;;;1.33;1.25;;;-0.70;99.90;;;;;;5025986;28;20021;-93
2022/01/15 07:00:45;;;;;;;0.93;0.93;;;-1.10;99.90;;;;;;5025792;28;20063;-93
2022/01/15 07:03:14;;;;;;;1.08;1.05;;;-1.20;99.90;;;;;;5040054;28;20049;-92
2022/01/15 07:05:40;;;;;;;0.60;0.60;;;-1.50;99.90;;;;;;5045673;28;20041;-92
2022/01/15 07:08:07;;;;;;;0.40;0.40;;;-1.60;99.90;;;;;;5045885;28;20032;-92
2022/01/15 07:10:34;;;;;;;1.75;0.80;;;-1.50;99.90;;;;;;5045589;28;20032;-93
2022/01/15 07:13:19;;;;;;;0.50;0.50;;;-1.50;99.90;;;;;;5045825;28;20084;-92
2022/01/15 07:15:57;;;;;;;0.85;0.85;;;-1.40;99.90;;;;;;5045335;28;20187;-92
2022/01/15 07:18:35;;;;;;;0.40;0.40;;;-1.20;99.90;;;;;;5033783;28;20048;-94
2022/01/15 07:21:04;;;;;;;0.40;0.40;;;-1.10;99.90;;;;;;5028410;28;20478;-93
2022/01/15 07:23:47;;;;;;;0.35;0.35;;;-1.20;99.90;;;;;;5030274;28;20033;-93
2022/01/15 07:26:14;;;;;;;0.50;0.50;;;-1.10;99.90;;;;;;5038116;28;20032;-93
2022/01/15 07:28:58;;;;;;;0.40;0.40;;;-1.00;99.90;;;;;;5025692;28;20052;-92
2022/01/15 07:31:24;;;;;;;0.60;0.60;;;-0.90;99.90;;;;;;5028535;28;20561;-92
2022/01/15 07:33:53;;;;;;;1.10;1.00;;;-0.90;99.90;;;;;;5025575;28;20091;-93
2022/01/15 07:36:22;;;;;;;0.50;0.50;;;-1.20;99.90;;;;;;5025945;28;20498;-93
2022/01/15 07:38:48;;;;;;;0.60;0.60;;;-1.10;99.90;;;;;;5026663;28;20596;-93
2022/01/15 07:41:29;;;;;;;0.90;0.90;;;-0.80;99.90;;;;;;5027138;28;20025;-92
2022/01/15 07:43:57;;;;;;;0.30;0.30;;;-0.70;99.90;;;;;;5044391;28;20021;-92
2022/01/15 07:46:28;;;;;;;0.50;0.50;;;-0.70;99.90;;;;;;5044111;28;20010;-91
2022/01/15 07:48:57;;;;;;;0.60;0.60;;;-0.50;99.90;;;;;;5043961;28;20101;-92
2022/01/15 07:51:29;;;;;;;0.38;0.38;;;-0.40;99.90;;;;;;5043867;28;20048;-91
2022/01/15 07:54:02;;;;;;;0.40;0.40;;;-0.40;99.90;;;;;;5031951;28;20059;-93
2022/01/15 07:56:28;;;;;;;0.40;0.40;;;-0.20;99.90;;;;;;5028019;23;20047;-76
2022/01/15 07:58:54;;;;;;;23.23;10.75;;;0.10;99.90;;;;;;5053162;28;20025;-76
2022/01/15 08:01:20;;;;;;;0.77;0.77;;;0.20;99.90;;;;;;5051831;28;20025;-76
2022/01/15 08:03:48;;;;;;;0.40;0.40;;;0.00;99.90;;;;;;5035174;28;20504;-76
2022/01/15 08:06:15;;;;;;;0.40;0.40;;;0.20;99.90;;;;;;5035201;28;20028;-76
2022/01/15 08:08:41;;;;;;;0.40;0.40;;;0.30;99.90;;;;;;5035317;28;20040;-76
2022/01/15 08:11:06;;;;;;;0.60;0.60;;;0.40;99.90;;;;;;5034972;28;20447;-76
2022/01/15 08:13:33;;;;;;;1.20;1.20;;;0.60;99.90;;;;;;5034803;28;20071;-76
2022/01/15 08:16:01;;;;;;;2.25;2.05;;;0.50;99.90;;;;;;5018189;28;20136;-76
2022/01/15 08:18:28;;;;;;;0.50;0.50;;;0.70;99.90;;;;;;5052775;28;20633;-76
2022/01/15 08:20:54;;;;;;;0.43;0.43;;;0.80;99.90;;;;;;5052637;28;20427;-76
2022/01/15 08:23:20;;;;;;;0.40;0.40;;;0.90;99.90;;;;;;5052632;28;20039;-76
2022/01/15 08:25:46;;;;;;;0.30;0.30;;;1.00;99.90;;;;;;5034902;28;20032;-76
2022/01/15 08:28:12;;;;;;;0.70;0.70;;;1.20;99.90;;;;;;5034846;28;20029;-76
2022/01/15 08:30:37;;;;;;;0.93;0.93;;;1.30;99.90;;;;;;5034782;28;20100;-75
2022/01/15 08:33:03;;;;;;;0.40;0.40;;;1.30;99.90;;;;;;5034708;28;20036;-76
2022/01/15 08:35:29;;;;;;;0.60;0.60;;;1.30;99.90;;;;;;5052506;28;20025;-77
2022/01/15 08:37:57;;;;;;;0.40;0.40;;;1.40;99.90;;;;;;5034515;28;20112;-77
2022/01/15 08:40:24;;;;;;;0.50;0.50;;;1.40;99.90;;;;;;5034818;28;20036;-76
2022/01/15 08:42:49;;;;;;;0.95;0.95;;;1.60;99.90;;;;;;5018556;28;20061;-77
2022/01/15 08:45:16;;;;;;;0.30;0.30;;;1.70;99.90;;;;;;5035017;28;20051;-77
2022/01/15 08:47:42;;;;;;;0.40;0.40;;;1.70;99.90;;;;;;5034869;28;20029;-75
2022/01/15 08:50:10;;;;;;;0.95;0.95;;;1.60;99.90;;;;;;5034248;28;20119;-78
2022/01/15 08:52:38;;;;;;;0.95;0.95;;;1.80;99.90;;;;;;5018859;28;20112;-77
2022/01/15 08:55:05;;;;;;;0.30;0.30;;;1.90;99.90;;;;;;5051905;28;20029;-77
2022/01/15 08:57:31;;;;;;;0.40;0.40;;;2.00;99.90;;;;;;5034563;28;20029;-77
2022/01/15 08:59:56;;;;;;;1.08;1.08;;;2.10;99.90;;;;;;5053240;28;20023;-77
2022/01/15 09:02:22;;;;;;;0.75;0.75;;;2.00;99.90;;;;;;5034861;28;20396;-77
2022/01/15 09:04:48;;;;;;;0.30;0.30;;;2.00;99.90;;;;;;5035586;28;20024;-77
2022/01/15 09:07:14;;;;;;;1.15;1.05;;;1.90;99.90;;;;;;5035936;28;20028;-77
2022/01/15 09:09:40;;;;;;;0.40;0.40;;;2.00;99.90;;;;;;5035493;28;20065;-77
2022/01/15 09:12:07;;;;;;;0.50;0.50;;;2.20;99.90;;;;;;5053288;28;20519;-76
2022/01/15 09:14:32;;;;;;;1.45;1.45;;;2.40;99.90;;;;;;5053587;28;20025;-77
2022/01/15 09:16:58;;;;;;;0.30;0.30;;;2.70;99.90;;;;;;5035694;28;20032;-77
2022/01/15 09:19:24;;;;;;;0.30;0.30;;;3.00;99.90;;;;;;5035437;28;20021;-77
2022/01/15 09:21:50;;;;;;;0.30;0.30;;;3.10;99.90;;;;;;5054043;28;20021;-77
2022/01/15 09:24:16;;;;;;;1.08;1.02;;;3.30;99.90;;;;;;5035590;28;20357;-76
2022/01/15 09:31:56;;;;;;;1.38;1.25;;;3.80;99.90;;;;;;5035676;28;20031;-77
2022/01/15 09:34:23;;;;;;;0.38;0.38;;;3.70;99.90;;;;;;5036499;28;20484;-78
2022/01/15 09:36:48;;;;;;;0.35;0.35;;;3.80;99.90;;;;;;5037599;28;20064;-77
2022/01/15 09:39:14;;;;;;;0.30;0.30;;;3.90;99.90;;;;;;5035758;28;20029;-78
2022/01/15 09:41:48;;;;;;;1.38;1.10;;;4.10;99.90;;;;;;5020141;28;20028;-77
2022/01/15 09:44:15;;;;;;;0.47;0.47;;;4.40;99.90;;;;;;5019483;28;20024;-77
2022/01/15 09:46:41;;;;;;;0.82;0.82;;;4.70;99.90;;;;;;5019130;28;20033;-77
2022/01/15 09:49:10;;;;;;;1.17;1.17;;;5.00;99.90;;;;;;5018996;28;20029;-76
2022/01/15 09:51:36;;;;;;;0.65;0.65;;;5.20;99.90;;;;;;5035707;28;20249;-77
2022/01/15 09:54:02;;;;;;;0.40;0.40;;;5.40;99.90;;;;;;5019456;28;20028;-77
2022/01/15 09:56:28;;;;;;;0.30;0.30;;;5.80;99.90;;;;;;5019297;28;20373;-77
2022/01/15 09:58:56;;;;;;;0.22;0.22;;;6.10;99.90;;;;;;5018608;28;20079;-76
2022/01/15 10:01:21;;;;;;;0.50;0.50;;;6.40;99.90;;;;;;5035294;28;20021;-77
2022/01/15 10:03:47;;;;;;;0.22;0.22;;;6.70;99.90;;;;;;5035682;28;20373;-77
2022/01/15 10:06:13;;;;;;;0.20;0.20;;;7.00;99.90;;;;;;5036343;28;20539;-77
2022/01/15 10:08:39;;;;;;;0.50;0.50;;;7.30;99.90;;;;;;5057028;28;20056;-77
2022/01/15 10:11:11;;;;;;;0.52;0.52;;;7.70;99.90;;;;;;5057800;28;20025;-77
2022/01/15 10:13:48;;;;;;;0.25;0.25;;;8.10;98.60;;;;;;5023201;28;20036;-75
2022/01/15 10:16:17;;;;;;;0.70;0.70;;;8.70;95.90;;;;;;5020938;28;20625;-77
2022/01/15 10:18:45;;;;;;;0.20;0.20;;;9.20;93.60;;;;;;5037133;28;20021;-76
2022/01/15 10:21:19;;;;;;;2.10;1.52;;;9.90;91.90;;;;;;5055306;28;20024;-76
2022/01/15 10:23:49;;;;;;;0.75;0.75;;;10.40;86.20;;;;;;5055753;28;20047;-76
2022/01/15 10:26:25;;;;;;;0.28;0.28;;;10.60;84.00;;;;;;5054418;28;20032;-76
2022/01/15 10:28:57;;;;;;;1.17;0.82;;;10.90;82.20;;;;;;5037528;28;20056;-76
2022/01/15 10:31:28;;;;;;;;;;;11.50;78.70;;;;;;5038195;28;20179;-77
2022/01/15 10:33:55;;;;;;;7.03;1.17;;;11.80;74.70;;;;;;5037187;28;19912;-76
2022/01/15 10:36:26;;;;;;;1.10;1.10;;;12.20;73.10;;;;;;5036425;28;20036;-76
2022/01/15 10:38:52;;;;;;;2.25;1.67;;;12.60;69.90;;;;;;5054503;28;20422;-76
2022/01/15 10:41:35;;;;;;;0.40;0.40;;;12.60;67.00;;;;;;5054340;28;20025;-76
2022/01/15 10:44:22;;;;;;;0.68;0.68;;;12.30;68.40;;;;;;5054373;28;20051;-76
2022/01/15 10:46:47;;;;;;;0.60;0.60;;;12.70;67.70;;;;;;5020248;28;20048;-76
2022/01/15 10:49:26;;;;;;;0.40;0.40;;;13.00;65.90;;;;;;5019981;28;20115;-76
2022/01/15 10:52:10;;;;;;;0.30;0.30;;;13.40;64.00;;;;;;5035999;28;20033;-76
2022/01/15 10:54:51;;;;;;;0.77;0.77;;;13.30;62.20;;;;;;5036195;28;20024;-77
2022/01/15 10:57:27;;;;;;;2.95;2.72;;;12.70;63.50;;;;;;5053905;28;20163;-77
2022/01/15 11:00:01;;;;;;;0.70;0.70;;;12.60;64.60;;;;;;5053870;28;20078;-77
2022/01/15 11:02:28;;;;;;;1.52;1.42;;;13.10;63.40;;;;;;5036276;28;20021;-76
2022/01/15 11:04:53;;;;;;;5.38;3.45;;;12.50;63.60;;;;;;5019873;28;20388;-77
2022/01/15 11:07:19;;;;;;;2.17;1.10;;;11.90;62.80;;;;;;5053799;28;20036;-77
2022/01/15 11:09:53;;;;;;;0.20;0.20;;;10.70;67.40;;;;;;5036384;28;20029;-77
2022/01/15 11:12:25;;;;;;;9.95;4.18;;;9.80;70.30;;;;;;5053889;28;20028;-77
2022/01/15 11:14:51;;;;;;;0.65;0.65;;;9.80;70.50;;;;;;5054082;28;20021;-76
2022/01/15 11:17:17;;;;;;;1.35;1.00;;;9.80;70.20;;;;;;5035729;28;20032;-77
2022/01/15 11:19:45;;;;;;;0.30;0.30;;;9.30;70.80;;;;;;5018985;28;20017;-77
2022/01/15 11:22:11;;;;;;;0.43;0.43;;;9.80;71.10;;;;;;5019363;28;20025;-77
2022/01/15 11:24:39;;;;;;;9.10;2.55;;;10.00;69.90;;;;;;5054214;28;20028;-76
2022/01/15 11:27:05;;;;;;;0.55;0.55;;;10.10;69.50;;;;;;5035661;28;20055;-77
2022/01/15 11:29:31;;;;;;;1.75;1.55;;;9.70;69.70;;;;;;5036046;28;20060;-77
2022/01/15 11:32:01;;;;;;;0.82;0.82;;;9.50;70.90;;;;;;5053419;28;20488;-76
2022/01/15 11:34:27;;;;;;;0.30;0.30;;;9.20;71.90;;;;;;5053334;28;20055;-77
2022/01/15 11:36:53;;;;;;;12.35;10.27;;;8.90;72.70;;;;;;5076835;22;20045;-78
2022/01/15 11:39:22;;;;;;;3.88;3.53;;;8.10;74.30;;;;;;5018968;28;20029;-78
2022/01/15 11:41:52;;;;;;;2.38;2.17;;;7.50;77.00;;;;;;5053406;28;20028;-78
2022/01/15 11:44:37;;;;;;;1.55;1.05;;;7.10;79.20;;;;;;5053602;28;20021;-78
2022/01/15 11:47:20;;;;;;;0.20;0.20;;;6.60;80.70;;;;;;5053260;28;20063;-78
2022/01/15 11:49:50;;;;;;;0.70;0.70;;;6.40;82.80;;;;;;5035645;28;20025;-78
2022/01/15 11:52:18;;;;;;;9.02;8.32;;;6.20;83.00;;;;;;5034945;28;20108;-78
2022/01/15 11:54:59;;;;;;;0.95;0.77;;;5.60;85.80;;;;;;5053415;28;20025;-78
2022/01/15 11:57:26;;;;;;;0.77;0.75;;;5.30;86.70;;;;;;5035287;28;20083;-78
2022/01/15 11:59:55;;;;;;;2.60;2.38;;;4.90;88.40;;;;;;5035549;28;20028;-78
2022/01/15 12:02:42;;;;;;;1.52;1.42;;;4.60;89.50;;;;;;5035174;28;20017;-77
2022/01/15 12:05:14;;;;;;;0.45;0.38;;;4.50;90.60;;;;;;5021260;28;20045;-78
2022/01/15 12:07:40;;;;;;;;;;;4.50;91.10;;;;;;5033304;28;20029;-78
2022/01/15 12:10:11;;;;;;;1.70;1.60;;;4.20;91.40;;;;;;5045739;28;20388;-77
2022/01/15 12:12:52;;;;;;;1.08;0.98;;;3.90;91.70;;;;;;5015177;28;20021;-78
2022/01/15 12:15:26;;;;;;;4.97;2.67;;;3.90;93.60;;;;;;5033438;28;20024;-76
2022/01/15 12:18:00;;;;;;;1.60;1.50;;;3.40;94.00;;;;;;5015413;28;20025;-76
2022/01/15 12:20:26;;;;;;;0.70;0.70;;;3.40;96.20;;;;;;5015439;28;20025;-77
2022/01/15 12:23:00;;;;;;;0.75;0.75;;;3.60;96.50;;;;;;5015162;28;20103;-78
2022/01/15 12:25:25;;;;;;;0.88;0.85;;;3.70;97.00;;;;;;4998658;28;20108;-78
2022/01/15 12:28:06;;;;;;;0.25;0.25;;;3.80;96.60;;;;;;5000747;28;20081;-77
2022/01/15 12:30:36;;;;;;;0.55;0.55;;;3.80;97.00;;;;;;4998045;28;20393;-76
2022/01/15 12:33:05;;;;;;;6.30;3.55;;;3.70;98.30;;;;;;5014716;28;20037;-73
2022/01/15 12:35:33;;;;;;;1.35;1.25;;;3.90;98.60;;;;;;5032377;28;20053;-72
2022/01/15 12:38:10;;;;;;;3.75;2.63;;;4.10;97.50;;;;;;5037723;28;20409;-72
2022/01/15 12:40:53;;;;;;;5.78;1.10;;;4.20;97.90;;;;;;5015026;28;20074;-72
2022/01/15 12:43:25;;;;;;;3.67;3.47;;;4.00;97.70;;;;;;5005366;28;20027;-73
2022/01/15 12:46:03;;;;;;;5.43;3.92;;;4.10;97.80;;;;;;5039510;28;20025;-72
2022/01/15 12:48:31;;;;;;;0.35;0.35;;;4.00;98.50;;;;;;5032437;28;20025;-73
2022/01/15 12:51:00;;;;;;;1.10;1.10;;;3.90;99.90;;;;;;5032077;28;20551;-73
2022/01/15 12:53:29;;;;;;;1.20;1.20;;;4.00;98.70;;;;;;5032237;28;20060;-73
2022/01/15 12:55:55;;;;;;;11.80;4.35;;;3.90;99.60;;;;;;5032180;28;20030;-73
2022/01/15 12:58:24;;;;;;;0.70;0.70;;;4.00;99.30;;;;;;5032253;28;20029;-73
2022/01/15 13:00:51;;;;;;;5.07;4.75;;;3.80;99.90;;;;;;5032199;28;20018;-72
2022/01/15 13:03:24;;;;;;;4.10;2.00;;;3.80;99.90;;;;;;5031901;28;20017;-73
2022/01/15 13:05:51;;;;;;;1.13;1.13;;;3.70;99.90;;;;;;5031933;28;20026;-73
2022/01/15 13:08:22;;;;;;;7.38;4.97;;;3.60;99.90;;;;;;5032144;28;20051;-73
2022/01/15 13:11:07;;;;;;;5.70;2.85;;;3.50;99.90;;;;;;5032155;28;20131;-73
2022/01/15 13:13:35;;;;;;;1.08;1.08;;;3.30;99.90;;;;;;5032020;28;20389;-72
2022/01/15 13:16:04;;;;;;;2.00;1.40;;;3.30;99.90;;;;;;5031813;28;20022;-73
2022/01/15 13:18:41;;;;;;;0.30;0.30;;;3.40;99.90;;;;;;5014466;28;20057;-73
2022/01/15 13:21:09;;;;;;;0.88;0.88;;;3.50;99.90;;;;;;5031906;28;20362;-73
2022/01/15 13:23:44;;;;;;;1.42;1.15;;;3.50;99.90;;;;;;5032108;28;20026;-73
2022/01/15 13:26:12;;;;;;;0.65;0.65;;;3.30;99.90;;;;;;5032006;28;20045;-72
2022/01/15 13:28:41;;;;;;;6.35;2.47;;;2.90;99.90;;;;;;5031873;28;20014;-72
2022/01/15 13:31:08;;;;;;;1.65;1.20;;;2.70;99.90;;;;;;4996196;28;20194;-72
2022/01/15 13:33:38;;;;;;;2.65;2.45;;;2.50;99.90;;;;;;5012272;28;20385;-73
2022/01/15 13:36:06;;;;;;;3.33;3.13;;;2.50;99.90;;;;;;5030263;28;20443;-74
2022/01/15 13:38:34;;;;;;;3.70;3.35;;;2.40;99.90;;;;;;5031169;28;20380;-73
2022/01/15 13:41:13;;;;;;;1.52;1.45;;;2.40;99.90;;;;;;5032423;28;20048;-73
2022/01/15 13:43:41;;;;;;;4.40;2.97;;;2.60;99.90;;;;;;5017842;28;20021;-73
2022/01/15 13:46:11;;;;;;;2.88;2.40;;;2.60;99.90;;;;;;5017869;28;20064;-74